Main page
METAR-TAF:

METAR-TAF

Airports :

Bahrain International Airport

Bahrain, Bahrain

latitude: 26-16N, longitude: 050-39E, elevation: 2 m

Current weather observation

The report was made 7 minutes ago, at 19:00 UTC
Wind 7 kt from the West
Temperature 21°C
Humidity 78%
Pressure 1019 hPa
Visibility 10 km or more
no clouds below 1500 m and no cumulonimbus

METAR: OBBI 211900Z 28007KT CAVOK 21/17 Q1019 NOSIG

Time: 22:07 (19:07 UTC)

Forecast

The report was made 2 hours and 7 minutes ago, at 17:00 UTC
Forecast valid from 21 at 18 UTC to 23 at 00 UTC
Wind 10 kt from the Northwest
Visibility 10 km or more
Few clouds at a height of 2500 ft
Becoming
from 22 at 14 UTC to 22 at 16 UTC
Wind 5 kt from variable directions

TAF: OBBI 211700Z 2118/2300 32010KT 9999 FEW025 BECMG 2214/2216 VRB05KT

Weather observations and forecasts of more than 4000 airports (METAR and TAF reports).

The available stations are represented by yellow and red dots on the map.

Hover mouse over dot to see the name of the station.

Then click to see weather observations and forecasts.

To change the map : click on the green buttons with a black cross to zoom in, on the green button with a dash to zoom out, or on the green arrows for adjacent maps.


METAR-TAF: